createdAt,value
2023-07-08T00:00:59.202Z,2.10
2023-07-08T00:03:26.402Z,2.40
2023-07-08T00:05:57.232Z,2.13
2023-07-08T00:08:24.232Z,1.98
2023-07-08T00:10:51.593Z,2.40
2023-07-08T00:13:20.133Z,2.15
2023-07-08T00:15:47.247Z,2.20
2023-07-08T00:18:17.734Z,2.08
2023-07-08T00:20:51.654Z,2.25
2023-07-08T00:23:22.959Z,2.10
2023-07-08T00:25:50.405Z,2.10
2023-07-08T00:28:20.647Z,2.22
2023-07-08T00:30:47.867Z,2.08
2023-07-08T00:33:14.846Z,2.15
2023-07-08T00:35:44.167Z,2.20
2023-07-08T00:38:29.458Z,2.35
2023-07-08T00:41:12.364Z,1.75
2023-07-08T00:43:49.234Z,1.92
2023-07-08T00:46:32.290Z,2.10
2023-07-08T00:49:08.062Z,2.38
2023-07-08T00:51:40.103Z,2.00
2023-07-08T00:54:18.763Z,2.10
2023-07-08T00:57:01.814Z,2.00
2023-07-08T00:59:43.631Z,2.08
2023-07-08T01:02:14.038Z,1.98
2023-07-08T01:04:51.662Z,2.03
2023-07-08T01:07:27.325Z,2.00
2023-07-08T01:10:04.445Z,2.08
2023-07-08T01:12:36.418Z,2.28
2023-07-08T01:15:05.627Z,2.38
2023-07-08T01:17:33.832Z,2.15
2023-07-08T01:20:06.911Z,2.22
2023-07-08T01:22:38.386Z,2.00
2023-07-08T01:25:07.178Z,2.22
2023-07-08T01:27:37.632Z,2.15
2023-07-08T01:30:06.271Z,2.10
2023-07-08T01:32:37.366Z,2.30
2023-07-08T01:35:05.741Z,1.95
2023-07-08T01:37:45.233Z,2.13
2023-07-08T01:40:39.327Z,2.30
2023-07-08T01:43:09.674Z,2.22
2023-07-08T01:45:40.875Z,2.63
2023-07-08T01:48:13.818Z,2.70
2023-07-08T01:50:58.184Z,1.83
2023-07-08T01:53:38.286Z,2.33
2023-07-08T01:56:06.632Z,2.60
2023-07-08T01:58:34.051Z,2.08
2023-07-08T02:01:01.949Z,2.25
2023-07-08T02:03:29.608Z,2.38
2023-07-08T02:05:56.814Z,1.83
2023-07-08T02:08:24.567Z,2.72
2023-07-08T02:10:57.996Z,2.20
2023-07-08T02:13:26.511Z,1.92
2023-07-08T02:15:53.648Z,2.63
2023-07-08T02:18:20.696Z,2.15
2023-07-08T02:20:48.413Z,2.10
2023-07-08T02:23:16.204Z,2.03
2023-07-08T02:25:50.820Z,2.40
2023-07-08T02:28:17.840Z,2.40
2023-07-08T02:30:44.761Z,2.83
2023-07-08T02:33:11.658Z,2.72
2023-07-08T02:35:38.591Z,2.95
2023-07-08T02:38:05.689Z,2.70
2023-07-08T02:40:32.694Z,2.42
2023-07-08T02:43:00.036Z,2.70
2023-07-08T02:45:27.403Z,3.00
2023-07-08T02:47:54.550Z,2.90
2023-07-08T02:50:21.515Z,2.75
2023-07-08T02:52:48.431Z,2.33
2023-07-08T02:55:15.745Z,2.70
2023-07-08T02:57:43.794Z,2.25
2023-07-08T03:00:11.882Z,2.10
2023-07-08T03:02:38.964Z,2.75
2023-07-08T03:05:06.802Z,2.70
2023-07-08T03:07:33.825Z,2.63
2023-07-08T03:10:01.178Z,2.65
2023-07-08T03:12:28.050Z,2.75
2023-07-08T03:14:55.010Z,2.40
2023-07-08T03:17:22.043Z,2.33
2023-07-08T03:19:50.272Z,2.08
2023-07-08T03:22:17.239Z,2.88
2023-07-08T03:24:47.561Z,3.00
2023-07-08T03:27:18.219Z,2.60
2023-07-08T03:29:45.232Z,2.50
2023-07-08T03:32:13.315Z,2.30
2023-07-08T03:34:40.565Z,2.58
2023-07-08T03:37:07.523Z,2.33
2023-07-08T03:39:34.555Z,2.40
2023-07-08T03:42:01.826Z,2.20
2023-07-08T03:44:28.797Z,2.63
2023-07-08T03:46:56.213Z,2.53
2023-07-08T03:49:25.136Z,2.50
2023-07-08T03:51:57.275Z,2.33
2023-07-08T03:54:25.898Z,2.42
2023-07-08T03:56:53.164Z,2.85
2023-07-08T03:59:20.394Z,2.55
2023-07-08T04:01:47.503Z,2.05
2023-07-08T04:04:16.830Z,2.58
2023-07-08T04:06:45.012Z,2.25
2023-07-08T04:09:11.980Z,2.25
2023-07-08T04:11:38.940Z,2.45
2023-07-08T04:14:05.969Z,3.20
2023-07-08T04:16:46.858Z,2.30
2023-07-08T04:19:16.045Z,2.40
2023-07-08T04:21:45.252Z,2.35
2023-07-08T04:24:14.709Z,2.65
2023-07-08T04:26:42.792Z,2.83
2023-07-08T04:29:14.747Z,3.10
2023-07-08T04:31:42.476Z,2.63
2023-07-08T04:34:10.852Z,2.75
2023-07-08T04:36:38.130Z,2.95
2023-07-08T04:39:07.293Z,3.30
2023-07-08T04:41:34.855Z,3.10
2023-07-08T04:44:03.720Z,3.05
2023-07-08T04:46:38.268Z,2.85
2023-07-08T04:49:07.023Z,2.95
2023-07-08T04:51:34.208Z,3.33
2023-07-08T04:54:01.093Z,2.53
2023-07-08T04:56:46.950Z,3.10
2023-07-08T04:59:18.870Z,3.20
2023-07-08T05:01:49.499Z,2.80
2023-07-08T05:04:19.260Z,2.75
2023-07-08T05:06:46.126Z,3.33
2023-07-08T05:09:16.173Z,2.67
2023-07-08T05:11:44.740Z,2.85
2023-07-08T05:14:13.878Z,2.75
2023-07-08T05:16:41.716Z,2.50
2023-07-08T05:19:09.418Z,2.28
2023-07-08T05:21:36.864Z,2.65
2023-07-08T05:24:05.666Z,2.40
2023-07-08T05:26:33.569Z,2.30
2023-07-08T05:29:00.833Z,2.25
2023-07-08T05:31:42.223Z,2.50
2023-07-08T05:34:15.069Z,2.10
2023-07-08T05:36:42.569Z,2.72
2023-07-08T05:39:09.485Z,2.30
2023-07-08T05:41:36.467Z,2.17
2023-07-08T05:44:03.572Z,2.38
2023-07-08T05:46:30.667Z,2.40
2023-07-08T05:48:59.737Z,2.58
2023-07-08T05:51:28.794Z,2.17
2023-07-08T05:53:56.176Z,2.33
2023-07-08T05:56:23.252Z,2.10
2023-07-08T05:58:50.242Z,2.55
2023-07-08T06:01:17.333Z,2.20
2023-07-08T06:03:44.962Z,2.42
2023-07-08T06:06:11.895Z,2.42
2023-07-08T06:08:39.756Z,1.80
2023-07-08T06:11:06.857Z,2.28
2023-07-08T06:13:34.285Z,2.00
2023-07-08T06:16:01.847Z,2.28
2023-07-08T06:18:28.896Z,2.53
2023-07-08T06:20:57.958Z,2.08
2023-07-08T06:23:26.053Z,2.28
2023-07-08T06:25:53.671Z,2.20
2023-07-08T06:28:21.295Z,2.28
2023-07-08T06:30:49.165Z,2.40
2023-07-08T06:33:16.264Z,2.75
2023-07-08T06:35:44.622Z,2.38
2023-07-08T06:38:12.446Z,1.90
2023-07-08T06:40:39.899Z,2.47
2023-07-08T06:43:06.924Z,2.28
2023-07-08T06:45:33.953Z,2.00
2023-07-08T06:48:01.062Z,2.63
2023-07-08T06:50:28.447Z,2.35
2023-07-08T06:52:55.410Z,2.40
2023-07-08T06:55:22.799Z,2.28
2023-07-08T06:57:49.749Z,2.55
2023-07-08T07:00:17.018Z,2.08
2023-07-08T07:02:44.572Z,2.20
2023-07-08T07:05:12.031Z,2.35
2023-07-08T07:07:39.027Z,3.28
2023-07-08T07:10:09.035Z,2.10
2023-07-08T07:12:36.757Z,2.45
2023-07-08T07:15:04.790Z,2.92
2023-07-08T07:17:32.556Z,2.40
2023-07-08T07:19:59.592Z,2.45
2023-07-08T07:22:26.649Z,2.65
2023-07-08T07:24:53.716Z,2.25
2023-07-08T07:27:20.712Z,2.40
2023-07-08T07:29:50.588Z,2.13
2023-07-08T07:32:20.176Z,2.35
2023-07-08T07:34:49.061Z,2.55
2023-07-08T07:37:17.940Z,1.77
2023-07-08T07:39:45.570Z,2.10
2023-07-08T07:42:16.912Z,1.50
2023-07-08T07:44:47.412Z,2.00
2023-07-08T07:47:14.995Z,2.20
2023-07-08T07:49:42.284Z,2.28
2023-07-08T07:52:09.309Z,2.20
2023-07-08T07:54:36.238Z,1.83
2023-07-08T07:57:03.337Z,2.10
2023-07-08T07:59:30.748Z,2.10
2023-07-08T08:01:57.773Z,2.33
2023-07-08T08:04:24.834Z,1.70
2023-07-08T08:06:52.005Z,2.00
2023-07-08T08:09:18.948Z,2.28
2023-07-08T08:11:45.945Z,2.17
2023-07-08T08:14:13.118Z,1.90
2023-07-08T08:16:40.155Z,2.13
2023-07-08T08:19:08.859Z,2.50
2023-07-08T08:21:36.289Z,2.33
2023-07-08T08:24:03.461Z,2.05
2023-07-08T08:26:30.486Z,2.00
2023-07-08T08:28:57.731Z,2.42
2023-07-08T08:31:25.325Z,2.30
2023-07-08T08:33:55.505Z,2.00
2023-07-08T08:36:22.546Z,1.83
2023-07-08T08:38:49.975Z,2.15
2023-07-08T08:41:25.227Z,2.05
2023-07-08T08:43:55.564Z,2.30
2023-07-08T08:46:53.900Z,2.30
2023-07-08T08:49:31.867Z,2.05
2023-07-08T08:52:00.304Z,1.90
2023-07-08T08:54:27.977Z,2.17
2023-07-08T08:57:02.637Z,2.13
2023-07-08T08:59:35.701Z,2.00
2023-07-08T09:02:30.178Z,2.20
2023-07-08T09:05:06.490Z,2.15
2023-07-08T09:07:39.934Z,2.65
2023-07-08T09:10:21.533Z,1.85
2023-07-08T09:12:51.959Z,1.90
2023-07-08T09:15:18.976Z,1.90
2023-07-08T09:17:46.993Z,1.88
2023-07-08T09:20:14.382Z,2.00
2023-07-08T09:22:46.098Z,2.10
2023-07-08T09:25:33.571Z,1.85
2023-07-08T09:28:00.641Z,2.15
2023-07-08T09:30:30.112Z,1.85
2023-07-08T09:32:57.614Z,1.50
2023-07-08T09:35:38.373Z,1.70
2023-07-08T09:38:10.500Z,1.52
2023-07-08T09:40:37.488Z,1.70
2023-07-08T09:43:16.852Z,1.58
2023-07-08T09:45:47.367Z,1.63
2023-07-08T09:48:38.118Z,1.40
2023-07-08T09:51:06.074Z,1.77
2023-07-08T09:53:35.158Z,2.70
2023-07-08T09:56:05.138Z,1.80
2023-07-08T09:58:39.046Z,1.90
2023-07-08T10:01:16.681Z,1.80
2023-07-08T10:03:43.842Z,1.80
2023-07-08T10:06:29.408Z,1.60
2023-07-08T10:09:06.168Z,1.98
2023-07-08T10:11:59.366Z,1.60
2023-07-08T10:14:40.515Z,1.48
2023-07-08T10:17:10.894Z,2.08
2023-07-08T10:19:37.838Z,1.75
2023-07-08T10:22:17.055Z,1.70
2023-07-08T10:25:28.598Z,1.80
2023-07-08T10:28:19.307Z,3.53
2023-07-08T10:31:15.086Z,1.65
2023-07-08T10:34:19.683Z,1.52
2023-07-08T10:36:56.587Z,1.75
2023-07-08T10:39:55.038Z,2.42
2023-07-08T10:42:56.072Z,2.05
2023-07-08T10:45:37.387Z,1.77
2023-07-08T10:48:29.445Z,1.83
2023-07-08T10:51:24.724Z,1.67
2023-07-08T10:54:23.118Z,1.65
2023-07-08T10:56:59.499Z,1.52
2023-07-08T11:00:10.171Z,2.03
2023-07-08T11:03:04.300Z,2.00
2023-07-08T11:05:44.581Z,1.50
2023-07-08T11:08:19.500Z,1.90
2023-07-08T11:11:09.873Z,1.80
2023-07-08T11:13:48.954Z,1.88
2023-07-08T11:16:23.991Z,1.80
2023-07-08T11:18:56.215Z,1.80
2023-07-08T11:21:29.071Z,1.52
2023-07-08T11:24:14.672Z,1.77
2023-07-08T11:26:44.297Z,1.92
2023-07-08T11:29:35.866Z,1.80
2023-07-08T11:32:06.759Z,1.73
2023-07-08T11:34:35.696Z,1.70
2023-07-08T11:37:03.425Z,1.88
2023-07-08T11:39:40.142Z,1.83
2023-07-08T11:42:21.308Z,1.70
2023-07-08T11:44:59.940Z,2.70
2023-07-08T11:47:41.855Z,1.80
2023-07-08T11:50:27.904Z,2.08
2023-07-08T11:53:12.588Z,1.67
2023-07-08T11:55:56.179Z,1.80
2023-07-08T11:58:24.732Z,1.90
2023-07-08T12:01:14.984Z,1.75
2023-07-08T12:04:00.137Z,1.67
2023-07-08T12:06:34.566Z,1.70
2023-07-08T12:09:16.118Z,1.73
2023-07-08T12:11:59.558Z,2.03
2023-07-08T12:14:28.280Z,1.65
2023-07-08T12:16:56.429Z,2.28
2023-07-08T12:19:29.442Z,1.50
2023-07-08T12:21:57.270Z,1.77
2023-07-08T12:24:27.654Z,1.80
2023-07-08T12:26:55.710Z,2.03
2023-07-08T12:29:23.568Z,1.70
2023-07-08T12:31:51.179Z,1.92
2023-07-08T12:34:18.559Z,1.80
2023-07-08T12:36:47.747Z,1.80
2023-07-08T12:39:16.711Z,1.67
2023-07-08T12:41:46.150Z,1.60
2023-07-08T12:44:21.837Z,1.85
2023-07-08T12:46:50.383Z,1.98
2023-07-08T12:49:20.182Z,1.80
2023-07-08T12:51:48.228Z,2.22
2023-07-08T12:54:15.941Z,1.75
2023-07-08T12:56:46.749Z,1.88
2023-07-08T12:59:20.348Z,1.70
2023-07-08T13:01:48.651Z,1.73
2023-07-08T13:04:16.276Z,1.90
2023-07-08T13:06:45.942Z,1.73
2023-07-08T13:09:38.665Z,1.80
2023-07-08T13:12:17.509Z,1.63
2023-07-08T13:14:46.348Z,1.50
2023-07-08T13:17:17.324Z,1.80
2023-07-08T13:19:45.983Z,1.55
2023-07-08T13:22:18.979Z,1.55
2023-07-08T13:24:46.344Z,1.73
2023-07-08T13:27:26.090Z,1.48
2023-07-08T13:30:07.323Z,1.67
2023-07-08T13:32:34.672Z,1.70
2023-07-08T13:35:02.068Z,1.70
2023-07-08T13:37:32.363Z,1.63
2023-07-08T13:39:59.264Z,1.30
2023-07-08T13:42:26.225Z,1.70
2023-07-08T13:44:53.365Z,1.50
2023-07-08T13:47:29.686Z,1.65
2023-07-08T13:50:24.504Z,1.42
2023-07-08T13:52:56.871Z,1.60
2023-07-08T13:55:24.675Z,1.27
2023-07-08T13:58:02.040Z,1.55
2023-07-08T14:00:32.715Z,1.30
2023-07-08T14:03:01.054Z,1.35
2023-07-08T14:05:28.213Z,1.30
2023-07-08T14:07:55.152Z,1.30
2023-07-08T14:10:22.487Z,1.30
2023-07-08T14:12:49.420Z,1.15
2023-07-08T14:15:16.562Z,1.48
2023-07-08T14:17:45.885Z,1.33
2023-07-08T14:20:17.387Z,1.52
2023-07-08T14:22:47.588Z,1.40
2023-07-08T14:25:16.565Z,1.42
2023-07-08T14:27:46.024Z,1.10
2023-07-08T14:30:13.880Z,1.38
2023-07-08T14:32:41.340Z,1.27
2023-07-08T14:35:19.593Z,1.40
2023-07-08T14:37:47.050Z,1.48
2023-07-08T14:40:25.857Z,1.02
2023-07-08T14:43:04.907Z,1.30
2023-07-08T14:45:40.876Z,1.20
2023-07-08T14:48:14.623Z,1.38
2023-07-08T14:50:42.124Z,1.30
2023-07-08T14:53:09.370Z,1.38
2023-07-08T14:55:37.733Z,1.42
2023-07-08T14:58:05.529Z,1.38
2023-07-08T15:00:32.569Z,1.20
2023-07-08T15:02:59.746Z,1.30
2023-07-08T15:05:29.072Z,1.63
2023-07-08T15:07:58.294Z,1.40
2023-07-08T15:10:28.400Z,1.40
2023-07-08T15:12:57.540Z,1.25
2023-07-08T15:15:33.590Z,1.23
2023-07-08T15:18:03.731Z,1.50
2023-07-08T15:20:32.848Z,1.25
2023-07-08T15:23:02.401Z,1.48
2023-07-08T15:25:40.769Z,1.60
2023-07-08T15:28:17.533Z,1.38
2023-07-08T15:30:45.774Z,1.33
2023-07-08T15:33:19.108Z,1.15
2023-07-08T15:35:46.444Z,1.23
2023-07-08T15:38:13.759Z,1.13
2023-07-08T15:40:40.970Z,1.52
2023-07-08T15:43:15.480Z,1.17
2023-07-08T15:45:44.233Z,1.30
2023-07-08T15:48:19.593Z,1.40
2023-07-08T15:50:46.663Z,1.40
2023-07-08T15:53:17.160Z,1.23
2023-07-08T15:55:46.956Z,1.23
2023-07-08T15:58:34.883Z,1.20
2023-07-08T16:01:04.064Z,1.35
2023-07-08T16:03:33.663Z,1.30
2023-07-08T16:06:01.134Z,1.60
2023-07-08T16:08:28.505Z,1.40
2023-07-08T16:10:59.745Z,1.20
2023-07-08T16:13:33.925Z,1.13
2023-07-08T16:16:01.691Z,1.50
2023-07-08T16:18:29.265Z,1.27
2023-07-08T16:20:56.515Z,1.40
2023-07-08T16:23:25.499Z,1.35
2023-07-08T16:25:53.596Z,1.23
2023-07-08T16:28:42.393Z,1.05
2023-07-08T16:31:20.189Z,1.77
2023-07-08T16:33:48.574Z,1.52
2023-07-08T16:36:27.956Z,1.48
2023-07-08T16:38:55.846Z,1.35
2023-07-08T16:41:28.744Z,1.40
2023-07-08T16:43:57.400Z,1.45
2023-07-08T16:46:24.843Z,1.55
2023-07-08T16:48:52.236Z,2.40
2023-07-08T16:51:23.818Z,1.75
2023-07-08T16:53:52.211Z,1.40
2023-07-08T16:56:20.677Z,1.40
2023-07-08T16:58:47.906Z,1.70
2023-07-08T17:01:24.598Z,1.30
2023-07-08T17:03:53.871Z,1.70
2023-07-08T17:06:21.367Z,1.30
2023-07-08T17:08:48.629Z,1.60
2023-07-08T17:11:15.765Z,1.30
2023-07-08T17:13:43.095Z,1.63
2023-07-08T17:16:19.562Z,1.25
2023-07-08T17:18:54.694Z,1.60
2023-07-08T17:21:21.710Z,1.40
2023-07-08T17:23:49.725Z,1.88
2023-07-08T17:26:17.608Z,1.90
2023-07-08T17:28:49.564Z,1.60
2023-07-08T17:33:59.850Z,1.80
2023-07-08T17:36:34.109Z,1.70
2023-07-08T17:39:01.421Z,2.03
2023-07-08T17:41:28.571Z,1.50
2023-07-08T17:43:55.496Z,1.73
2023-07-08T17:46:26.294Z,1.63
2023-07-08T17:48:56.148Z,1.65
2023-07-08T17:51:27.602Z,2.10
2023-07-08T17:53:56.716Z,2.10
2023-07-08T17:56:32.894Z,2.00
2023-07-08T17:59:01.184Z,2.10
2023-07-08T18:01:29.779Z,2.35
2023-07-08T18:03:56.867Z,1.92
2023-07-08T18:06:24.085Z,2.40
2023-07-08T18:08:51.622Z,2.50
2023-07-08T18:11:24.728Z,2.60
2023-07-08T18:13:53.065Z,3.00
2023-07-08T18:16:22.020Z,3.72
2023-07-08T18:18:48.998Z,2.70
2023-07-08T18:21:22.100Z,3.00
2023-07-08T18:23:50.612Z,3.17
2023-07-08T18:26:29.978Z,2.67
2023-07-08T18:28:56.912Z,3.00
2023-07-08T18:31:35.256Z,3.20
2023-07-08T18:34:06.619Z,3.40
2023-07-08T18:36:34.314Z,3.35
2023-07-08T18:39:01.365Z,2.65
2023-07-08T18:41:31.608Z,3.60
2023-07-08T18:43:58.761Z,3.17
2023-07-08T18:46:26.036Z,3.58
2023-07-08T18:48:53.128Z,3.72
2023-07-08T18:51:37.268Z,2.78
2023-07-08T18:54:04.220Z,4.18
2023-07-08T18:56:31.279Z,3.75
2023-07-08T18:58:58.167Z,3.85
2023-07-08T19:01:26.471Z,3.33
2023-07-08T19:03:54.713Z,3.58
2023-07-08T19:06:23.234Z,3.00
2023-07-08T19:08:50.126Z,3.25
2023-07-08T19:11:21.468Z,3.42
2023-07-08T19:13:49.872Z,3.60
2023-07-08T19:16:19.350Z,3.78
2023-07-08T19:18:49.097Z,3.47
2023-07-08T19:21:25.833Z,3.30
2023-07-08T19:23:54.813Z,3.20
2023-07-08T19:26:24.077Z,3.80
2023-07-08T19:28:51.680Z,3.33
2023-07-08T19:31:23.602Z,4.07
2023-07-08T19:33:51.835Z,3.65
2023-07-08T19:36:21.078Z,4.10
2023-07-08T19:38:51.950Z,3.65
2023-07-08T19:41:28.703Z,3.80
2023-07-08T19:43:58.289Z,3.40
2023-07-08T19:46:25.473Z,3.58
2023-07-08T19:48:52.383Z,3.85
2023-07-08T19:51:19.308Z,3.63
2023-07-08T19:53:46.174Z,3.60
2023-07-08T19:56:16.833Z,3.42
2023-07-08T19:58:44.993Z,4.22
2023-07-08T20:01:12.567Z,3.90
2023-07-08T20:03:40.371Z,4.10
2023-07-08T20:06:24.227Z,4.47
2023-07-08T20:08:52.778Z,4.00
2023-07-08T20:11:20.056Z,4.30
2023-07-08T20:13:47.993Z,4.68
2023-07-08T20:16:16.507Z,5.68
2023-07-08T20:18:43.980Z,4.80
2023-07-08T20:21:13.713Z,4.07
2023-07-08T20:23:40.928Z,3.97
2023-07-08T20:26:35.998Z,4.38
2023-07-08T20:29:04.605Z,4.10
2023-07-08T20:31:33.494Z,4.60
2023-07-08T20:34:00.900Z,5.13
2023-07-08T20:36:29.158Z,4.40
2023-07-08T20:38:56.438Z,4.35
2023-07-08T20:41:23.392Z,4.60
2023-07-08T20:43:51.546Z,4.05
2023-07-08T20:46:28.419Z,4.28
2023-07-08T20:48:58.286Z,4.35
2023-07-08T20:51:25.679Z,4.85
2023-07-08T20:53:55.903Z,4.70
2023-07-08T20:56:29.549Z,5.20
2023-07-08T20:58:56.402Z,5.00
2023-07-08T21:01:23.867Z,4.68
2023-07-08T21:03:51.066Z,4.75
2023-07-08T21:06:25.948Z,4.55
2023-07-08T21:08:53.091Z,4.68
2023-07-08T21:11:20.625Z,4.60
2023-07-08T21:13:48.977Z,4.80
2023-07-08T21:16:22.409Z,4.38
2023-07-08T21:18:51.230Z,4.20
2023-07-08T21:21:19.337Z,4.38
2023-07-08T21:23:48.207Z,4.60
2023-07-08T21:26:33.282Z,3.92
2023-07-08T21:29:02.130Z,4.03
2023-07-08T21:31:30.722Z,3.88
2023-07-08T21:33:57.721Z,4.72
2023-07-08T21:36:36.330Z,4.50
2023-07-08T21:39:09.425Z,4.30
2023-07-08T21:41:36.348Z,4.20
2023-07-08T21:44:03.788Z,4.38
2023-07-08T21:46:30.784Z,4.78
2023-07-08T21:48:58.792Z,4.30
2023-07-08T21:51:30.670Z,4.65
2023-07-08T21:53:58.545Z,3.75
2023-07-08T21:56:26.563Z,4.53
2023-07-08T21:58:54.525Z,4.45
2023-07-08T22:01:28.203Z,4.90
2023-07-08T22:03:57.191Z,4.20
2023-07-08T22:06:25.241Z,4.80
2023-07-08T22:08:52.587Z,4.35
2023-07-08T22:11:29.584Z,4.60
2023-07-08T22:13:58.348Z,4.45
2023-07-08T22:16:27.826Z,4.53
2023-07-08T22:18:56.102Z,4.28
2023-07-08T22:21:29.357Z,4.20
2023-07-08T22:23:58.664Z,4.32
2023-07-08T22:26:26.663Z,3.85
2023-07-08T22:28:53.669Z,4.00
2023-07-08T22:31:32.506Z,4.00
2023-07-08T22:33:59.975Z,4.05
2023-07-08T22:36:26.971Z,4.00
2023-07-08T22:39:06.089Z,4.60
2023-07-08T22:41:51.484Z,4.53
2023-07-08T22:44:18.574Z,4.32
2023-07-08T22:46:46.657Z,4.38
2023-07-08T22:49:24.897Z,5.25
2023-07-08T22:51:55.762Z,5.05
2023-07-08T22:54:23.310Z,4.30
2023-07-08T22:56:50.563Z,4.70
2023-07-08T22:59:17.422Z,5.10
2023-07-08T23:01:45.033Z,4.38
2023-07-08T23:04:12.166Z,4.80
2023-07-08T23:06:39.305Z,4.45
2023-07-08T23:09:06.676Z,3.92
2023-07-08T23:11:33.574Z,3.85
2023-07-08T23:14:00.722Z,4.00
2023-07-08T23:16:30.694Z,4.05
2023-07-08T23:19:03.459Z,3.70
2023-07-08T23:21:31.693Z,3.38
2023-07-08T23:23:58.865Z,3.65
2023-07-08T23:26:37.640Z,4.00
2023-07-08T23:29:06.212Z,3.70
2023-07-08T23:31:35.724Z,3.65
2023-07-08T23:34:04.245Z,3.70
2023-07-08T23:36:50.258Z,3.35
2023-07-08T23:39:23.510Z,4.03
2023-07-08T23:41:50.789Z,3.80
2023-07-08T23:44:20.139Z,3.92
2023-07-08T23:46:56.143Z,3.92
2023-07-08T23:49:35.842Z,3.97
2023-07-08T23:52:03.865Z,3.97
2023-07-08T23:54:35.580Z,3.90
2023-07-08T23:57:10.282Z,3.67
2023-07-08T23:59:50.875Z,3.70
